sensor_id;sensor_type;location;lat;lon;timestamp;temperature;humidity
15452;DHT22;7827;53.594;9.938;2023-09-08T00:00:21;20.60;1.00
15452;DHT22;7827;53.594;9.938;2023-09-08T00:02:49;20.60;11.00
15452;DHT22;7827;53.594;9.938;2023-09-08T00:05:17;20.60;99.90
15452;DHT22;7827;53.594;9.938;2023-09-08T00:07:46;20.50;99.90
15452;DHT22;7827;53.594;9.938;2023-09-08T00:10:15;20.40;99.90
15452;DHT22;7827;53.594;9.938;2023-09-08T00:12:44;20.50;1.00
15452;DHT22;7827;53.594;9.938;2023-09-08T00:15:12;20.60;99.90
15452;DHT22;7827;53.594;9.938;2023-09-08T00:17:41;20.60;99.90
15452;DHT22;7827;53.594;9.938;2023-09-08T00:20:10;20.60;1.00
15452;DHT22;7827;53.594;9.938;2023-09-08T00:22:39;20.50;99.90
15452;DHT22;7827;53.594;9.938;2023-09-08T00:25:07;20.50;10.10
15452;DHT22;7827;53.594;9.938;2023-09-08T00:27:37;20.50;71.60
15452;DHT22;7827;53.594;9.938;2023-09-08T00:30:07;20.40;99.90
15452;DHT22;7827;53.594;9.938;2023-09-08T00:32:36;20.40;99.90
15452;DHT22;7827;53.594;9.938;2023-09-08T00:35:06;20.30;99.90
15452;DHT22;7827;53.594;9.938;2023-09-08T00:37:35;20.20;1.00
15452;DHT22;7827;53.594;9.938;2023-09-08T00:40:04;20.10;99.90
15452;DHT22;7827;53.594;9.938;2023-09-08T00:42:37;20.10;1.00
15452;DHT22;7827;53.594;9.938;2023-09-08T00:45:06;20.10;1.00
15452;DHT22;7827;53.594;9.938;2023-09-08T00:47:34;20.10;1.00
15452;DHT22;7827;53.594;9.938;2023-09-08T00:50:04;20.10;99.90
15452;DHT22;7827;53.594;9.938;2023-09-08T00:52:33;20.10;1.00
15452;DHT22;7827;53.594;9.938;2023-09-08T00:55:02;20.00;99.90
15452;DHT22;7827;53.594;9.938;2023-09-08T00:57:32;20.00;99.90
15452;DHT22;7827;53.594;9.938;2023-09-08T01:00:03;20.00;1.00
15452;DHT22;7827;53.594;9.938;2023-09-08T01:02:33;19.90;1.00
15452;DHT22;7827;53.594;9.938;2023-09-08T01:05:02;19.90;1.00
15452;DHT22;7827;53.594;9.938;2023-09-08T01:07:31;19.80;1.00
15452;DHT22;7827;53.594;9.938;2023-09-08T01:10:00;19.80;1.00
15452;DHT22;7827;53.594;9.938;2023-09-08T01:12:33;19.80;99.90
15452;DHT22;7827;53.594;9.938;2023-09-08T01:15:05;19.70;1.00
15452;DHT22;7827;53.594;9.938;2023-09-08T01:17:34;19.70;1.00
15452;DHT22;7827;53.594;9.938;2023-09-08T01:20:06;19.70;43.90
15452;DHT22;7827;53.594;9.938;2023-09-08T01:22:55;19.60;1.00
15452;DHT22;7827;53.594;9.938;2023-09-08T01:25:35;19.60;99.90
15452;DHT22;7827;53.594;9.938;2023-09-08T01:28:08;19.50;99.90
15452;DHT22;7827;53.594;9.938;2023-09-08T01:30:39;19.50;99.90
15452;DHT22;7827;53.594;9.938;2023-09-08T01:33:08;19.40;1.00
15452;DHT22;7827;53.594;9.938;2023-09-08T01:35:37;19.40;22.10
15452;DHT22;7827;53.594;9.938;2023-09-08T01:38:06;19.20;99.90
15452;DHT22;7827;53.594;9.938;2023-09-08T01:40:35;19.20;1.00
15452;DHT22;7827;53.594;9.938;2023-09-08T01:43:04;19.20;1.00
15452;DHT22;7827;53.594;9.938;2023-09-08T01:45:33;19.20;1.00
15452;DHT22;7827;53.594;9.938;2023-09-08T01:48:03;19.10;1.00
15452;DHT22;7827;53.594;9.938;2023-09-08T01:50:32;19.10;1.00
15452;DHT22;7827;53.594;9.938;2023-09-08T01:53:00;19.00;1.00
15452;DHT22;7827;53.594;9.938;2023-09-08T01:55:28;19.00;1.00
15452;DHT22;7827;53.594;9.938;2023-09-08T01:57:58;19.00;1.00
15452;DHT22;7827;53.594;9.938;2023-09-08T02:00:27;19.00;1.00
15452;DHT22;7827;53.594;9.938;2023-09-08T02:02:55;19.00;1.00
15452;DHT22;7827;53.594;9.938;2023-09-08T02:05:24;19.00;99.90
15452;DHT22;7827;53.594;9.938;2023-09-08T02:07:53;19.00;99.90
15452;DHT22;7827;53.594;9.938;2023-09-08T02:10:24;19.00;99.90
15452;DHT22;7827;53.594;9.938;2023-09-08T02:12:52;19.00;99.90
15452;DHT22;7827;53.594;9.938;2023-09-08T02:15:22;19.00;99.90
15452;DHT22;7827;53.594;9.938;2023-09-08T02:17:53;19.00;99.90
15452;DHT22;7827;53.594;9.938;2023-09-08T02:20:23;18.90;99.90
15452;DHT22;7827;53.594;9.938;2023-09-08T02:22:53;18.80;99.90
15452;DHT22;7827;53.594;9.938;2023-09-08T02:25:23;18.80;1.00
15452;DHT22;7827;53.594;9.938;2023-09-08T02:27:51;18.60;1.00
15452;DHT22;7827;53.594;9.938;2023-09-08T02:30:21;18.60;99.90
15452;DHT22;7827;53.594;9.938;2023-09-08T02:32:51;18.50;99.90
15452;DHT22;7827;53.594;9.938;2023-09-08T02:35:19;18.50;99.90
15452;DHT22;7827;53.594;9.938;2023-09-08T02:37:48;18.40;99.90
15452;DHT22;7827;53.594;9.938;2023-09-08T02:40:16;18.30;99.90
15452;DHT22;7827;53.594;9.938;2023-09-08T02:42:46;18.20;1.00
15452;DHT22;7827;53.594;9.938;2023-09-08T02:45:14;18.20;1.00
15452;DHT22;7827;53.594;9.938;2023-09-08T02:47:44;18.10;1.00
15452;DHT22;7827;53.594;9.938;2023-09-08T02:50:13;18.10;1.00
15452;DHT22;7827;53.594;9.938;2023-09-08T02:52:41;18.10;1.00
15452;DHT22;7827;53.594;9.938;2023-09-08T02:55:09;18.00;1.00
15452;DHT22;7827;53.594;9.938;2023-09-08T02:57:38;18.00;1.00
15452;DHT22;7827;53.594;9.938;2023-09-08T03:00:07;17.90;1.00
15452;DHT22;7827;53.594;9.938;2023-09-08T03:02:36;17.80;1.00
15452;DHT22;7827;53.594;9.938;2023-09-08T03:05:06;17.70;1.00
15452;DHT22;7827;53.594;9.938;2023-09-08T03:07:36;17.60;1.00
15452;DHT22;7827;53.594;9.938;2023-09-08T03:10:06;17.50;1.00
15452;DHT22;7827;53.594;9.938;2023-09-08T03:12:36;17.50;1.00
15452;DHT22;7827;53.594;9.938;2023-09-08T03:15:05;17.30;1.00
15452;DHT22;7827;53.594;9.938;2023-09-08T03:17:35;17.40;1.00
15452;DHT22;7827;53.594;9.938;2023-09-08T03:20:04;17.40;1.00
15452;DHT22;7827;53.594;9.938;2023-09-08T03:22:35;17.40;1.00
15452;DHT22;7827;53.594;9.938;2023-09-08T03:25:04;17.50;1.00
15452;DHT22;7827;53.594;9.938;2023-09-08T03:27:33;17.50;1.00
15452;DHT22;7827;53.594;9.938;2023-09-08T03:30:01;17.60;1.00
15452;DHT22;7827;53.594;9.938;2023-09-08T03:32:31;17.60;1.00
15452;DHT22;7827;53.594;9.938;2023-09-08T03:35:00;17.70;1.00
15452;DHT22;7827;53.594;9.938;2023-09-08T03:37:30;17.70;1.00
15452;DHT22;7827;53.594;9.938;2023-09-08T03:39:59;17.70;1.00
15452;DHT22;7827;53.594;9.938;2023-09-08T03:42:27;17.70;1.00
15452;DHT22;7827;53.594;9.938;2023-09-08T03:44:56;17.80;1.00
15452;DHT22;7827;53.594;9.938;2023-09-08T03:47:24;18.00;1.00
15452;DHT22;7827;53.594;9.938;2023-09-08T03:49:53;18.10;1.00
15452;DHT22;7827;53.594;9.938;2023-09-08T03:52:21;18.00;1.00
15452;DHT22;7827;53.594;9.938;2023-09-08T03:54:51;18.00;1.00
15452;DHT22;7827;53.594;9.938;2023-09-08T03:57:19;18.00;1.00
15452;DHT22;7827;53.594;9.938;2023-09-08T03:59:48;18.00;1.00
15452;DHT22;7827;53.594;9.938;2023-09-08T04:02:16;18.10;99.90
15452;DHT22;7827;53.594;9.938;2023-09-08T04:04:45;18.10;1.00
15452;DHT22;7827;53.594;9.938;2023-09-08T04:07:13;18.10;99.90
15452;DHT22;7827;53.594;9.938;2023-09-08T04:09:42;18.10;99.90
15452;DHT22;7827;53.594;9.938;2023-09-08T04:12:12;18.10;1.00
15452;DHT22;7827;53.594;9.938;2023-09-08T04:14:40;18.10;1.00
15452;DHT22;7827;53.594;9.938;2023-09-08T04:17:09;18.10;1.00
15452;DHT22;7827;53.594;9.938;2023-09-08T04:19:37;18.10;1.00
15452;DHT22;7827;53.594;9.938;2023-09-08T04:22:07;18.20;1.00
15452;DHT22;7827;53.594;9.938;2023-09-08T04:24:36;18.20;1.00
15452;DHT22;7827;53.594;9.938;2023-09-08T04:27:04;18.20;1.00
15452;DHT22;7827;53.594;9.938;2023-09-08T04:29:34;18.20;1.00
15452;DHT22;7827;53.594;9.938;2023-09-08T04:32:03;18.20;99.90
15452;DHT22;7827;53.594;9.938;2023-09-08T04:34:37;18.10;1.00
15452;DHT22;7827;53.594;9.938;2023-09-08T04:37:06;18.00;1.00
15452;DHT22;7827;53.594;9.938;2023-09-08T04:39:35;18.00;1.00
15452;DHT22;7827;53.594;9.938;2023-09-08T04:42:05;18.10;1.00
15452;DHT22;7827;53.594;9.938;2023-09-08T04:44:35;18.10;1.00
15452;DHT22;7827;53.594;9.938;2023-09-08T04:47:04;18.20;1.00
15452;DHT22;7827;53.594;9.938;2023-09-08T04:49:33;18.30;99.90
15452;DHT22;7827;53.594;9.938;2023-09-08T04:52:01;18.30;99.90
15452;DHT22;7827;53.594;9.938;2023-09-08T04:54:31;18.20;99.90
15452;DHT22;7827;53.594;9.938;2023-09-08T04:56:59;18.30;1.00
15452;DHT22;7827;53.594;9.938;2023-09-08T04:59:49;18.30;1.00
15452;DHT22;7827;53.594;9.938;2023-09-08T05:02:18;18.30;99.90
15452;DHT22;7827;53.594;9.938;2023-09-08T05:04:47;18.40;1.00
15452;DHT22;7827;53.594;9.938;2023-09-08T05:07:16;18.50;99.90
15452;DHT22;7827;53.594;9.938;2023-09-08T05:09:46;18.50;99.90
15452;DHT22;7827;53.594;9.938;2023-09-08T05:12:14;18.50;99.90
15452;DHT22;7827;53.594;9.938;2023-09-08T05:14:43;18.70;1.00
15452;DHT22;7827;53.594;9.938;2023-09-08T05:17:12;18.70;56.00
15452;DHT22;7827;53.594;9.938;2023-09-08T05:19:41;18.70;99.90
15452;DHT22;7827;53.594;9.938;2023-09-08T05:22:09;18.60;99.90
15452;DHT22;7827;53.594;9.938;2023-09-08T05:24:38;18.70;99.90
15452;DHT22;7827;53.594;9.938;2023-09-08T05:27:06;18.70;99.90
15452;DHT22;7827;53.594;9.938;2023-09-08T05:29:35;18.60;99.90
15452;DHT22;7827;53.594;9.938;2023-09-08T05:32:03;18.70;99.90
15452;DHT22;7827;53.594;9.938;2023-09-08T05:34:33;18.70;99.90
15452;DHT22;7827;53.594;9.938;2023-09-08T05:37:02;18.80;17.80
15452;DHT22;7827;53.594;9.938;2023-09-08T05:39:31;18.80;99.90
15452;DHT22;7827;53.594;9.938;2023-09-08T05:42:00;18.80;99.90
15452;DHT22;7827;53.594;9.938;2023-09-08T05:44:28;18.80;99.90
15452;DHT22;7827;53.594;9.938;2023-09-08T05:46:57;18.90;99.90
15452;DHT22;7827;53.594;9.938;2023-09-08T05:49:26;19.00;99.90
15452;DHT22;7827;53.594;9.938;2023-09-08T05:51:56;19.00;99.90
15452;DHT22;7827;53.594;9.938;2023-09-08T05:54:26;19.10;99.90
15452;DHT22;7827;53.594;9.938;2023-09-08T05:56:56;19.20;39.00
15452;DHT22;7827;53.594;9.938;2023-09-08T05:59:24;19.10;37.40
15452;DHT22;7827;53.594;9.938;2023-09-08T06:01:52;19.20;37.40
15452;DHT22;7827;53.594;9.938;2023-09-08T06:04:21;19.30;91.90
15452;DHT22;7827;53.594;9.938;2023-09-08T06:06:50;19.40;1.00
15452;DHT22;7827;53.594;9.938;2023-09-08T06:09:21;19.40;99.90
15452;DHT22;7827;53.594;9.938;2023-09-08T06:11:50;19.60;99.90
15452;DHT22;7827;53.594;9.938;2023-09-08T06:14:18;19.70;1.00
15452;DHT22;7827;53.594;9.938;2023-09-08T06:16:48;19.80;1.00
15452;DHT22;7827;53.594;9.938;2023-09-08T06:19:17;19.80;99.90
15452;DHT22;7827;53.594;9.938;2023-09-08T06:21:45;19.90;1.00
15452;DHT22;7827;53.594;9.938;2023-09-08T06:24:14;19.90;1.00
15452;DHT22;7827;53.594;9.938;2023-09-08T06:26:44;20.00;1.00
15452;DHT22;7827;53.594;9.938;2023-09-08T06:29:13;20.10;1.00
15452;DHT22;7827;53.594;9.938;2023-09-08T06:31:41;20.20;1.00
15452;DHT22;7827;53.594;9.938;2023-09-08T06:34:10;20.20;99.90
15452;DHT22;7827;53.594;9.938;2023-09-08T06:36:38;20.40;99.90
15452;DHT22;7827;53.594;9.938;2023-09-08T06:39:07;20.50;1.00
15452;DHT22;7827;53.594;9.938;2023-09-08T06:41:36;20.60;1.00
15452;DHT22;7827;53.594;9.938;2023-09-08T06:44:06;20.60;99.90
15452;DHT22;7827;53.594;9.938;2023-09-08T06:46:34;20.70;1.00
15452;DHT22;7827;53.594;9.938;2023-09-08T06:49:03;20.80;99.90
15452;DHT22;7827;53.594;9.938;2023-09-08T06:51:32;20.80;2.10
15452;DHT22;7827;53.594;9.938;2023-09-08T06:54:00;21.00;1.00
15452;DHT22;7827;53.594;9.938;2023-09-08T06:56:36;21.20;1.00
15452;DHT22;7827;53.594;9.938;2023-09-08T06:59:07;21.30;1.00
15452;DHT22;7827;53.594;9.938;2023-09-08T07:01:36;21.40;1.00
15452;DHT22;7827;53.594;9.938;2023-09-08T07:04:07;21.40;1.00
15452;DHT22;7827;53.594;9.938;2023-09-08T07:06:35;21.40;1.00
15452;DHT22;7827;53.594;9.938;2023-09-08T07:09:05;21.40;1.00
15452;DHT22;7827;53.594;9.938;2023-09-08T07:11:34;21.50;13.60
15452;DHT22;7827;53.594;9.938;2023-09-08T07:14:02;21.50;75.30
15452;DHT22;7827;53.594;9.938;2023-09-08T07:16:32;21.60;1.00
15452;DHT22;7827;53.594;9.938;2023-09-08T07:19:01;21.70;99.90
15452;DHT22;7827;53.594;9.938;2023-09-08T07:21:30;21.70;1.00
15452;DHT22;7827;53.594;9.938;2023-09-08T07:23:58;21.90;99.90
15452;DHT22;7827;53.594;9.938;2023-09-08T07:26:28;22.00;94.10
15452;DHT22;7827;53.594;9.938;2023-09-08T07:28:56;21.90;99.90
15452;DHT22;7827;53.594;9.938;2023-09-08T07:31:24;22.00;1.00
15452;DHT22;7827;53.594;9.938;2023-09-08T07:33:54;22.10;99.90
15452;DHT22;7827;53.594;9.938;2023-09-08T07:36:23;22.30;1.00
15452;DHT22;7827;53.594;9.938;2023-09-08T07:38:52;22.30;1.00
15452;DHT22;7827;53.594;9.938;2023-09-08T07:41:21;22.30;1.00
15452;DHT22;7827;53.594;9.938;2023-09-08T07:43:49;22.40;99.90
15452;DHT22;7827;53.594;9.938;2023-09-08T07:46:21;22.50;99.90
15452;DHT22;7827;53.594;9.938;2023-09-08T07:48:50;22.70;99.90
15452;DHT22;7827;53.594;9.938;2023-09-08T07:51:20;22.70;99.90
15452;DHT22;7827;53.594;9.938;2023-09-08T07:53:48;22.80;1.00
15452;DHT22;7827;53.594;9.938;2023-09-08T07:56:16;22.80;55.40
15452;DHT22;7827;53.594;9.938;2023-09-08T07:58:45;22.80;99.90
15452;DHT22;7827;53.594;9.938;2023-09-08T08:01:14;22.80;1.00
15452;DHT22;7827;53.594;9.938;2023-09-08T08:03:42;22.80;99.90
15452;DHT22;7827;53.594;9.938;2023-09-08T08:06:11;22.90;1.00
15452;DHT22;7827;53.594;9.938;2023-09-08T08:08:41;22.90;68.90
15452;DHT22;7827;53.594;9.938;2023-09-08T08:11:11;22.90;45.70
15452;DHT22;7827;53.594;9.938;2023-09-08T08:13:39;22.90;55.80
15452;DHT22;7827;53.594;9.938;2023-09-08T08:16:08;23.10;1.00
15452;DHT22;7827;53.594;9.938;2023-09-08T08:18:36;23.10;1.00
15452;DHT22;7827;53.594;9.938;2023-09-08T08:21:05;23.10;66.00
15452;DHT22;7827;53.594;9.938;2023-09-08T08:23:34;23.30;99.90
15452;DHT22;7827;53.594;9.938;2023-09-08T08:26:04;23.30;99.90
15452;DHT22;7827;53.594;9.938;2023-09-08T08:28:33;23.40;1.00
15452;DHT22;7827;53.594;9.938;2023-09-08T08:31:03;23.40;1.00
15452;DHT22;7827;53.594;9.938;2023-09-08T08:33:31;23.50;12.20
15452;DHT22;7827;53.594;9.938;2023-09-08T08:36:00;23.60;1.00
15452;DHT22;7827;53.594;9.938;2023-09-08T08:38:29;23.60;1.00
15452;DHT22;7827;53.594;9.938;2023-09-08T08:41:04;23.70;74.50
15452;DHT22;7827;53.594;9.938;2023-09-08T08:43:32;23.80;1.00
15452;DHT22;7827;53.594;9.938;2023-09-08T08:46:01;23.90;99.60
15452;DHT22;7827;53.594;9.938;2023-09-08T08:48:32;24.00;1.00
15452;DHT22;7827;53.594;9.938;2023-09-08T08:51:01;24.10;99.90
15452;DHT22;7827;53.594;9.938;2023-09-08T08:53:31;24.10;1.00
15452;DHT22;7827;53.594;9.938;2023-09-08T08:56:01;24.10;1.00
15452;DHT22;7827;53.594;9.938;2023-09-08T08:58:33;24.20;99.90
15452;DHT22;7827;53.594;9.938;2023-09-08T09:01:02;24.20;1.00
15452;DHT22;7827;53.594;9.938;2023-09-08T09:03:31;24.30;99.90
15452;DHT22;7827;53.594;9.938;2023-09-08T09:06:05;24.40;1.00
15452;DHT22;7827;53.594;9.938;2023-09-08T09:08:33;24.60;99.90
15452;DHT22;7827;53.594;9.938;2023-09-08T09:11:04;24.70;99.90
15452;DHT22;7827;53.594;9.938;2023-09-08T09:13:32;24.80;1.00
15452;DHT22;7827;53.594;9.938;2023-09-08T09:16:01;24.80;99.90
15452;DHT22;7827;53.594;9.938;2023-09-08T09:18:31;24.80;99.90
15452;DHT22;7827;53.594;9.938;2023-09-08T09:21:01;24.80;1.00
15452;DHT22;7827;53.594;9.938;2023-09-08T09:23:30;24.80;99.90
15452;DHT22;7827;53.594;9.938;2023-09-08T09:26:01;24.90;99.90
15452;DHT22;7827;53.594;9.938;2023-09-08T09:28:33;25.00;15.40
15452;DHT22;7827;53.594;9.938;2023-09-08T09:31:02;25.10;92.60
15452;DHT22;7827;53.594;9.938;2023-09-08T09:33:31;25.20;49.80
15452;DHT22;7827;53.594;9.938;2023-09-08T09:35:59;25.30;1.00
15452;DHT22;7827;53.594;9.938;2023-09-08T09:38:28;25.40;1.00
15452;DHT22;7827;53.594;9.938;2023-09-08T09:40:56;25.40;1.00
15452;DHT22;7827;53.594;9.938;2023-09-08T09:43:28;25.50;1.00
15452;DHT22;7827;53.594;9.938;2023-09-08T09:45:59;25.50;1.00
15452;DHT22;7827;53.594;9.938;2023-09-08T09:48:27;25.50;1.00
15452;DHT22;7827;53.594;9.938;2023-09-08T09:50:56;25.60;1.00
15452;DHT22;7827;53.594;9.938;2023-09-08T09:53:24;25.70;1.00
15452;DHT22;7827;53.594;9.938;2023-09-08T09:55:53;25.70;1.00
15452;DHT22;7827;53.594;9.938;2023-09-08T09:58:25;25.80;1.00
15452;DHT22;7827;53.594;9.938;2023-09-08T10:00:54;25.70;1.00
15452;DHT22;7827;53.594;9.938;2023-09-08T10:03:26;25.90;1.00
15452;DHT22;7827;53.594;9.938;2023-09-08T10:05:55;26.00;99.90
15452;DHT22;7827;53.594;9.938;2023-09-08T10:08:23;26.10;1.00
15452;DHT22;7827;53.594;9.938;2023-09-08T10:10:52;26.00;99.90
15452;DHT22;7827;53.594;9.938;2023-09-08T10:13:27;26.10;1.00
15452;DHT22;7827;53.594;9.938;2023-09-08T10:15:58;26.20;1.00
15452;DHT22;7827;53.594;9.938;2023-09-08T10:18:31;26.20;1.00
15452;DHT22;7827;53.594;9.938;2023-09-08T10:21:04;26.30;1.00
15452;DHT22;7827;53.594;9.938;2023-09-08T10:23:36;26.30;99.90
15452;DHT22;7827;53.594;9.938;2023-09-08T10:26:10;26.40;1.00
15452;DHT22;7827;53.594;9.938;2023-09-08T10:28:39;26.40;1.00
15452;DHT22;7827;53.594;9.938;2023-09-08T10:31:08;26.50;1.00
15452;DHT22;7827;53.594;9.938;2023-09-08T10:33:43;26.60;99.90
15452;DHT22;7827;53.594;9.938;2023-09-08T10:36:12;26.60;99.90
15452;DHT22;7827;53.594;9.938;2023-09-08T10:38:41;26.60;99.90
15452;DHT22;7827;53.594;9.938;2023-09-08T10:41:27;26.60;99.90
15452;DHT22;7827;53.594;9.938;2023-09-08T10:44:02;26.60;99.90
15452;DHT22;7827;53.594;9.938;2023-09-08T10:46:37;26.60;1.00
15452;DHT22;7827;53.594;9.938;2023-09-08T10:49:07;26.70;1.00
15452;DHT22;7827;53.594;9.938;2023-09-08T10:51:37;26.80;1.00
15452;DHT22;7827;53.594;9.938;2023-09-08T10:54:07;26.80;1.00
15452;DHT22;7827;53.594;9.938;2023-09-08T10:56:48;26.90;99.90
15452;DHT22;7827;53.594;9.938;2023-09-08T10:59:27;27.00;99.90
15452;DHT22;7827;53.594;9.938;2023-09-08T11:01:56;27.10;99.90
15452;DHT22;7827;53.594;9.938;2023-09-08T11:04:27;27.10;99.90
15452;DHT22;7827;53.594;9.938;2023-09-08T11:06:56;27.20;99.90
15452;DHT22;7827;53.594;9.938;2023-09-08T11:09:25;27.30;99.90
15452;DHT22;7827;53.594;9.938;2023-09-08T11:11:53;27.30;99.90
15452;DHT22;7827;53.594;9.938;2023-09-08T11:14:25;27.30;99.90
15452;DHT22;7827;53.594;9.938;2023-09-08T11:16:54;27.40;99.90
15452;DHT22;7827;53.594;9.938;2023-09-08T11:19:43;27.50;99.90
15452;DHT22;7827;53.594;9.938;2023-09-08T11:22:13;27.60;99.90
15452;DHT22;7827;53.594;9.938;2023-09-08T11:24:42;27.60;99.90
15452;DHT22;7827;53.594;9.938;2023-09-08T11:27:11;27.70;99.90
15452;DHT22;7827;53.594;9.938;2023-09-08T11:29:40;27.80;99.90
15452;DHT22;7827;53.594;9.938;2023-09-08T11:32:08;27.90;33.40
15452;DHT22;7827;53.594;9.938;2023-09-08T11:34:38;27.90;99.90
15452;DHT22;7827;53.594;9.938;2023-09-08T11:37:09;27.90;72.60
15452;DHT22;7827;53.594;9.938;2023-09-08T11:39:40;28.00;61.20
15452;DHT22;7827;53.594;9.938;2023-09-08T11:42:11;27.90;27.40
15452;DHT22;7827;53.594;9.938;2023-09-08T11:44:40;28.00;33.60
15452;DHT22;7827;53.594;9.938;2023-09-08T11:47:10;28.10;88.30
15452;DHT22;7827;53.594;9.938;2023-09-08T11:49:41;28.10;19.00
15452;DHT22;7827;53.594;9.938;2023-09-08T11:52:10;28.20;1.00
15452;DHT22;7827;53.594;9.938;2023-09-08T11:54:39;28.30;1.00
15452;DHT22;7827;53.594;9.938;2023-09-08T11:57:27;28.30;1.00
15452;DHT22;7827;53.594;9.938;2023-09-08T11:59:56;28.30;1.00
15452;DHT22;7827;53.594;9.938;2023-09-08T12:02:25;28.40;1.00
15452;DHT22;7827;53.594;9.938;2023-09-08T12:04:55;28.40;1.00
15452;DHT22;7827;53.594;9.938;2023-09-08T12:07:23;28.40;1.00
15452;DHT22;7827;53.594;9.938;2023-09-08T12:09:52;28.50;1.00
15452;DHT22;7827;53.594;9.938;2023-09-08T12:12:20;28.50;1.00
15452;DHT22;7827;53.594;9.938;2023-09-08T12:14:49;28.60;1.00
15452;DHT22;7827;53.594;9.938;2023-09-08T12:17:17;28.50;1.00
15452;DHT22;7827;53.594;9.938;2023-09-08T12:19:46;28.60;1.00
15452;DHT22;7827;53.594;9.938;2023-09-08T12:22:16;28.60;1.00
15452;DHT22;7827;53.594;9.938;2023-09-08T12:24:56;28.70;1.00
15452;DHT22;7827;53.594;9.938;2023-09-08T12:27:26;28.70;1.00
15452;DHT22;7827;53.594;9.938;2023-09-08T12:29:55;28.80;1.00
15452;DHT22;7827;53.594;9.938;2023-09-08T12:32:25;28.80;1.00
15452;DHT22;7827;53.594;9.938;2023-09-08T12:34:56;28.80;1.00
15452;DHT22;7827;53.594;9.938;2023-09-08T12:37:26;29.00;1.00
15452;DHT22;7827;53.594;9.938;2023-09-08T12:39:56;28.90;1.00
15452;DHT22;7827;53.594;9.938;2023-09-08T12:42:24;28.90;1.00
15452;DHT22;7827;53.594;9.938;2023-09-08T12:44:56;29.00;99.90
15452;DHT22;7827;53.594;9.938;2023-09-08T12:47:24;29.10;99.90
15452;DHT22;7827;53.594;9.938;2023-09-08T12:49:52;29.10;99.90
15452;DHT22;7827;53.594;9.938;2023-09-08T12:52:22;29.10;99.90
15452;DHT22;7827;53.594;9.938;2023-09-08T12:54:52;29.10;99.90
15452;DHT22;7827;53.594;9.938;2023-09-08T12:57:20;29.20;99.90
15452;DHT22;7827;53.594;9.938;2023-09-08T12:59:49;29.20;99.90
15452;DHT22;7827;53.594;9.938;2023-09-08T13:02:18;29.30;99.90
15452;DHT22;7827;53.594;9.938;2023-09-08T13:04:46;29.20;99.90
15452;DHT22;7827;53.594;9.938;2023-09-08T13:07:24;29.20;99.90
15452;DHT22;7827;53.594;9.938;2023-09-08T13:09:55;29.20;99.90
15452;DHT22;7827;53.594;9.938;2023-09-08T13:12:24;29.20;99.90
15452;DHT22;7827;53.594;9.938;2023-09-08T13:14:52;29.20;99.90
15452;DHT22;7827;53.594;9.938;2023-09-08T13:17:20;29.30;99.90
15452;DHT22;7827;53.594;9.938;2023-09-08T13:19:49;29.20;99.90
15452;DHT22;7827;53.594;9.938;2023-09-08T13:22:18;29.30;99.90
15452;DHT22;7827;53.594;9.938;2023-09-08T13:24:46;29.30;99.90
15452;DHT22;7827;53.594;9.938;2023-09-08T13:27:16;29.30;99.90
15452;DHT22;7827;53.594;9.938;2023-09-08T13:29:45;29.50;99.90
15452;DHT22;7827;53.594;9.938;2023-09-08T13:32:14;29.50;99.90
15452;DHT22;7827;53.594;9.938;2023-09-08T13:34:42;29.50;99.90
15452;DHT22;7827;53.594;9.938;2023-09-08T13:37:12;29.50;99.90
15452;DHT22;7827;53.594;9.938;2023-09-08T13:39:41;29.40;99.90
15452;DHT22;7827;53.594;9.938;2023-09-08T13:42:10;29.40;99.90
15452;DHT22;7827;53.594;9.938;2023-09-08T13:44:39;29.50;99.90
15452;DHT22;7827;53.594;9.938;2023-09-08T13:47:08;29.50;99.90
15452;DHT22;7827;53.594;9.938;2023-09-08T13:49:36;29.60;99.90
15452;DHT22;7827;53.594;9.938;2023-09-08T13:52:07;29.60;99.90
15452;DHT22;7827;53.594;9.938;2023-09-08T13:54:38;29.70;99.90
15452;DHT22;7827;53.594;9.938;2023-09-08T13:57:11;29.60;99.90
15452;DHT22;7827;53.594;9.938;2023-09-08T13:59:42;29.60;99.90
15452;DHT22;7827;53.594;9.938;2023-09-08T14:02:10;29.50;99.90
15452;DHT22;7827;53.594;9.938;2023-09-08T14:04:41;29.50;99.90
15452;DHT22;7827;53.594;9.938;2023-09-08T14:07:12;29.40;99.90
15452;DHT22;7827;53.594;9.938;2023-09-08T14:09:44;29.40;99.90
15452;DHT22;7827;53.594;9.938;2023-09-08T14:12:15;29.50;99.90
15452;DHT22;7827;53.594;9.938;2023-09-08T14:14:48;29.50;99.90
15452;DHT22;7827;53.594;9.938;2023-09-08T14:17:16;29.60;99.90
15452;DHT22;7827;53.594;9.938;2023-09-08T14:19:44;29.50;99.90
15452;DHT22;7827;53.594;9.938;2023-09-08T14:22:13;29.50;99.90
15452;DHT22;7827;53.594;9.938;2023-09-08T14:24:41;29.50;99.90
15452;DHT22;7827;53.594;9.938;2023-09-08T14:27:09;29.40;99.90
15452;DHT22;7827;53.594;9.938;2023-09-08T14:29:38;29.40;99.90
15452;DHT22;7827;53.594;9.938;2023-09-08T14:32:07;29.40;99.90
15452;DHT22;7827;53.594;9.938;2023-09-08T14:34:36;29.40;99.90
15452;DHT22;7827;53.594;9.938;2023-09-08T14:37:04;29.30;99.90
15452;DHT22;7827;53.594;9.938;2023-09-08T14:39:37;29.30;99.90
15452;DHT22;7827;53.594;9.938;2023-09-08T14:42:05;29.40;99.90
15452;DHT22;7827;53.594;9.938;2023-09-08T14:44:34;29.40;99.90
15452;DHT22;7827;53.594;9.938;2023-09-08T14:47:03;29.40;99.90
15452;DHT22;7827;53.594;9.938;2023-09-08T14:49:32;29.50;99.90
15452;DHT22;7827;53.594;9.938;2023-09-08T14:52:01;29.50;99.90
15452;DHT22;7827;53.594;9.938;2023-09-08T14:54:29;29.50;99.90
15452;DHT22;7827;53.594;9.938;2023-09-08T14:56:58;29.50;99.90
15452;DHT22;7827;53.594;9.938;2023-09-08T14:59:26;29.40;99.90
15452;DHT22;7827;53.594;9.938;2023-09-08T15:01:54;29.40;99.90
15452;DHT22;7827;53.594;9.938;2023-09-08T15:04:24;29.30;99.90
15452;DHT22;7827;53.594;9.938;2023-09-08T15:06:54;29.30;99.90
15452;DHT22;7827;53.594;9.938;2023-09-08T15:09:22;29.20;99.90
15452;DHT22;7827;53.594;9.938;2023-09-08T15:11:50;29.30;99.90
15452;DHT22;7827;53.594;9.938;2023-09-08T15:14:19;29.30;99.90
15452;DHT22;7827;53.594;9.938;2023-09-08T15:16:47;29.20;99.90
15452;DHT22;7827;53.594;9.938;2023-09-08T15:19:15;29.20;99.90
15452;DHT22;7827;53.594;9.938;2023-09-08T15:21:44;29.20;99.90
15452;DHT22;7827;53.594;9.938;2023-09-08T15:24:13;29.30;99.90
15452;DHT22;7827;53.594;9.938;2023-09-08T15:26:43;29.30;99.90
15452;DHT22;7827;53.594;9.938;2023-09-08T15:29:12;29.30;99.90
15452;DHT22;7827;53.594;9.938;2023-09-08T15:31:43;29.20;99.90
15452;DHT22;7827;53.594;9.938;2023-09-08T15:34:12;29.20;99.90
15452;DHT22;7827;53.594;9.938;2023-09-08T15:36:40;29.30;99.90
15452;DHT22;7827;53.594;9.938;2023-09-08T15:39:08;29.30;99.90
15452;DHT22;7827;53.594;9.938;2023-09-08T15:41:38;29.30;99.90
15452;DHT22;7827;53.594;9.938;2023-09-08T15:44:07;29.40;99.90
15452;DHT22;7827;53.594;9.938;2023-09-08T15:46:35;29.40;99.90
15452;DHT22;7827;53.594;9.938;2023-09-08T15:49:04;29.40;99.90
15452;DHT22;7827;53.594;9.938;2023-09-08T15:51:32;29.40;99.90
15452;DHT22;7827;53.594;9.938;2023-09-08T15:54:00;29.50;99.90
15452;DHT22;7827;53.594;9.938;2023-09-08T15:56:30;29.50;99.90
15452;DHT22;7827;53.594;9.938;2023-09-08T15:59:00;29.50;99.90
15452;DHT22;7827;53.594;9.938;2023-09-08T16:01:28;29.60;99.90
15452;DHT22;7827;53.594;9.938;2023-09-08T16:03:57;29.70;99.90
15452;DHT22;7827;53.594;9.938;2023-09-08T16:06:25;29.70;99.90